Time,TemperatureF,DewpointF,PressureIn,WindDirection,WindDirectionDegrees,WindSpeedMPH,WindSpeedGustMPH,Humidity,HourlyPrecipIn,Conditions,Clouds,dailyrainin,SoftwareType,DateUTC
2013-04-20 00:01:00,62.6,62.3,29.57,SSW,213,0.0,0.0,99,0.00,,,0.00,Wunderground v.1.15,2013-04-20 04:01:00,
2013-04-20 00:06:00,62.6,62.3,29.57,SSW,213,0.0,1.0,99,0.00,,,0.00,Wunderground v.1.15,2013-04-20 04:06:00,
2013-04-20 00:11:00,62.5,62.2,29.56,SSW,213,0.0,0.0,99,0.00,,,0.00,Wunderground v.1.15,2013-04-20 04:11:00,
2013-04-20 00:16:00,62.5,62.2,29.57,SSW,213,0.0,0.0,99,0.00,,,0.00,Wunderground v.1.15,2013-04-20 04:16:00,
2013-04-20 00:21:00,62.4,62.1,29.57,SSW,213,0.0,0.0,99,0.00,,,0.00,Wunderground v.1.15,2013-04-20 04:21:00,
2013-04-20 00:26:00,62.4,62.1,29.56,SSW,212,0.0,1.0,99,0.00,,,0.00,Wunderground v.1.15,2013-04-20 04:26:00,
2013-04-20 00:31:00,62.3,62.0,29.56,SSW,207,0.0,2.0,99,0.00,,,0.00,Wunderground v.1.15,2013-04-20 04:31:00,
2013-04-20 00:36:00,62.3,62.0,29.57,SSW,206,0.0,2.0,99,0.00,,,0.00,Wunderground v.1.15,2013-04-20 04:36:00,
2013-04-20 00:41:00,62.3,62.0,29.57,SSW,206,0.0,2.0,99,0.00,,,0.01,Wunderground v.1.15,2013-04-20 04:41:00,
2013-04-20 00:46:00,62.3,62.0,29.57,SSW,209,0.0,3.0,99,0.07,,,0.02,Wunderground v.1.15,2013-04-20 04:46:00,
2013-04-20 00:51:00,62.3,62.3,29.57,SSW,208,0.0,2.0,100,0.07,,,0.02,Wunderground v.1.15,2013-04-20 04:51:00,
2013-04-20 00:56:00,62.2,62.2,29.57,SSW,209,1.0,2.0,100,0.06,,,0.02,Wunderground v.1.15,2013-04-20 04:56:00,
2013-04-20 01:01:00,62.2,62.2,29.58,SSW,210,0.0,3.0,100,0.04,,,0.03,Wunderground v.1.15,2013-04-20 05:01:00,
2013-04-20 01:06:00,62.1,62.1,29.56,WSW,240,0.0,3.0,100,0.04,,,0.03,Wunderground v.1.15,2013-04-20 05:06:00,
2013-04-20 01:11:00,60.8,60.5,29.59,West,262,2.0,12.0,99,0.23,,,0.05,Wunderground v.1.15,2013-04-20 05:11:00,
2013-04-20 01:16:00,58.4,57.0,29.60,SW,214,5.0,12.0,95,0.15,,,0.06,Wunderground v.1.15,2013-04-20 05:16:00,
2013-04-20 01:21:00,57.1,55.7,29.60,WSW,254,4.0,5.0,95,0.20,,,0.08,Wunderground v.1.15,2013-04-20 05:21:00,
2013-04-20 01:26:00,56.4,55.0,29.59,SW,228,3.0,10.0,95,0.09,,,0.08,Wunderground v.1.15,2013-04-20 05:26:00,
2013-04-20 01:31:00,55.9,54.8,29.59,West,266,2.0,2.0,96,0.06,,,0.08,Wunderground v.1.15,2013-04-20 05:31:00,
2013-04-20 01:36:00,55.8,54.7,29.58,SW,225,1.0,3.0,96,0.06,,,0.08,Wunderground v.1.15,2013-04-20 05:36:00,
2013-04-20 01:41:00,55.8,55.0,29.59,SW,219,0.0,1.0,97,0.05,,,0.08,Wunderground v.1.15,2013-04-20 05:41:00,
2013-04-20 01:46:00,55.7,54.9,29.58,SW,214,1.0,5.0,97,0.04,,,0.08,Wunderground v.1.15,2013-04-20 05:46:00,
2013-04-20 01:51:00,55.5,54.7,29.59,West,275,2.0,3.0,97,0.00,,,0.08,Wunderground v.1.15,2013-04-20 05:51:00,
2013-04-20 01:56:00,55.2,54.4,29.60,SW,214,2.0,5.0,97,0.00,,,0.08,Wunderground v.1.15,2013-04-20 05:56:00,
2013-04-20 02:01:00,55.0,54.2,29.59,SSW,204,2.0,5.0,97,0.00,,,0.08,Wunderground v.1.15,2013-04-20 06:01:00,
2013-04-20 02:06:00,54.9,54.1,29.58,SW,223,1.0,5.0,97,0.00,,,0.08,Wunderground v.1.15,2013-04-20 06:06:00,
2013-04-20 02:11:00,54.8,54.0,29.58,SW,236,1.0,5.0,97,0.00,,,0.08,Wunderground v.1.15,2013-04-20 06:11:00,
2013-04-20 02:16:00,54.6,54.0,29.58,SW,225,1.0,5.0,98,0.00,,,0.08,Wunderground v.1.15,2013-04-20 06:16:00,
2013-04-20 02:21:00,54.6,53.8,29.58,WNW,283,1.0,1.0,97,0.00,,,0.08,Wunderground v.1.15,2013-04-20 06:21:00,
2013-04-20 02:26:00,54.5,53.9,29.59,SW,226,1.0,4.0,98,0.00,,,0.08,Wunderground v.1.15,2013-04-20 06:26:00,
2013-04-20 02:31:00,54.5,53.9,29.59,WSW,255,1.0,5.0,98,0.00,,,0.08,Wunderground v.1.15,2013-04-20 06:31:00,
2013-04-20 02:36:00,54.3,53.7,29.63,NNW,335,2.0,9.0,98,0.00,,,0.09,Wunderground v.1.15,2013-04-20 06:36:00,
2013-04-20 02:41:00,53.2,52.4,29.62,NW,325,3.0,5.0,97,0.00,,,0.09,Wunderground v.1.15,2013-04-20 06:41:00,
2013-04-20 02:46:00,52.4,51.3,29.60,NNW,346,2.0,5.0,96,0.13,,,0.11,Wunderground v.1.15,2013-04-20 06:46:00,
2013-04-20 02:51:00,51.9,50.8,29.60,NNW,328,1.0,3.0,96,0.11,,,0.11,Wunderground v.1.15,2013-04-20 06:51:00,
2013-04-20 02:56:00,51.4,50.3,29.59,North,350,1.0,4.0,96,0.06,,,0.11,Wunderground v.1.15,2013-04-20 06:56:00,
2013-04-20 03:01:00,51.1,50.0,29.58,NNW,338,1.0,1.0,96,0.04,,,0.11,Wunderground v.1.15,2013-04-20 07:01:00,
2013-04-20 03:06:00,50.7,49.6,29.58,NW,313,1.0,5.0,96,0.00,,,0.11,Wunderground v.1.15,2013-04-20 07:06:00,
2013-04-20 03:11:00,50.4,49.3,29.58,NW,321,1.0,10.0,96,0.00,,,0.11,Wunderground v.1.15,2013-04-20 07:11:00,
2013-04-20 03:16:00,50.2,49.1,29.59,West,268,2.0,10.0,96,0.00,,,0.11,Wunderground v.1.15,2013-04-20 07:16:00,
2013-04-20 03:21:00,50.1,49.3,29.58,West,268,1.0,3.0,97,0.00,,,0.12,Wunderground v.1.15,2013-04-20 07:21:00,
2013-04-20 03:26:00,49.9,49.1,29.57,North,355,1.0,4.0,97,0.00,,,0.12,Wunderground v.1.15,2013-04-20 07:26:00,
2013-04-20 03:31:00,49.7,48.9,29.59,WSW,248,1.0,4.0,97,0.05,,,0.13,Wunderground v.1.15,2013-04-20 07:31:00,
2013-04-20 03:36:00,49.7,48.9,29.60,NW,307,1.0,4.0,97,0.30,,,0.15,Wunderground v.1.15,2013-04-20 07:36:00,
2013-04-20 03:41:00,49.3,48.5,29.61,WNW,293,1.0,7.0,97,0.11,,,0.15,Wunderground v.1.15,2013-04-20 07:41:00,
2013-04-20 03:46:00,48.8,48.0,29.64,SW,228,2.0,10.0,97,0.20,,,0.17,Wunderground v.1.15,2013-04-20 07:46:00,
2013-04-20 03:51:00,48.4,47.6,29.65,West,264,3.0,6.0,97,0.12,,,0.18,Wunderground v.1.15,2013-04-20 07:51:00,
2013-04-20 03:56:00,47.8,47.0,29.64,West,277,2.0,6.0,97,0.18,,,0.19,Wunderground v.1.15,2013-04-20 07:56:00,
2013-04-20 04:01:00,47.4,46.6,29.63,WNW,286,2.0,4.0,97,0.13,,,0.20,Wunderground v.1.15,2013-04-20 08:01:00,
2013-04-20 04:06:00,47.2,46.4,29.63,West,273,1.0,4.0,97,0.14,,,0.21,Wunderground v.1.15,2013-04-20 08:06:00,
2013-04-20 04:11:00,46.9,46.1,29.63,NNW,332,1.0,4.0,97,0.08,,,0.22,Wunderground v.1.15,2013-04-20 08:11:00,
2013-04-20 04:16:00,46.5,45.7,29.62,West,259,1.0,7.0,97,0.08,,,0.22,Wunderground v.1.15,2013-04-20 08:16:00,
2013-04-20 04:21:00,46.3,45.5,29.63,NNE,19,1.0,3.0,97,0.08,,,0.23,Wunderground v.1.15,2013-04-20 08:21:00,
2013-04-20 04:26:00,46.1,45.3,29.63,NW,318,1.0,5.0,97,0.07,,,0.23,Wunderground v.1.15,2013-04-20 08:26:00,
2013-04-20 04:31:00,46.0,45.2,29.63,WSW,249,1.0,2.0,97,0.04,,,0.23,Wunderground v.1.15,2013-04-20 08:31:00,
2013-04-20 04:36:00,45.9,45.1,29.64,WSW,250,1.0,4.0,97,0.00,,,0.23,Wunderground v.1.15,2013-04-20 08:36:00,
2013-04-20 04:41:00,45.9,45.1,29.66,WNW,291,1.0,1.0,97,0.00,,,0.23,Wunderground v.1.15,2013-04-20 08:41:00,
2013-04-20 04:46:00,45.5,44.7,29.66,WNW,300,1.0,12.0,97,0.00,,,0.24,Wunderground v.1.15,2013-04-20 08:46:00,
2013-04-20 04:51:00,44.8,43.7,29.66,West,279,3.0,6.0,96,0.14,,,0.25,Wunderground v.1.15,2013-04-20 08:51:00,
2013-04-20 04:56:00,44.5,43.4,29.67,WSW,254,3.0,6.0,96,0.09,,,0.26,Wunderground v.1.15,2013-04-20 08:56:00,
2013-04-20 05:01:00,44.3,43.2,29.67,NNW,345,1.0,4.0,96,0.08,,,0.26,Wunderground v.1.15,2013-04-20 09:01:00,
2013-04-20 05:06:00,44.1,43.0,29.68,WNW,297,1.0,5.0,96,0.07,,,0.27,Wunderground v.1.15,2013-04-20 09:06:00,
2013-04-20 05:11:00,43.9,42.8,29.68,West,265,1.0,2.0,96,0.07,,,0.27,Wunderground v.1.15,2013-04-20 09:11:00,
2013-04-20 05:16:00,43.7,42.6,29.69,WNW,288,1.0,4.0,96,0.04,,,0.27,Wunderground v.1.15,2013-04-20 09:16:00,
2013-04-20 05:21:00,43.5,42.4,29.68,NW,307,1.0,3.0,96,0.00,,,0.27,Wunderground v.1.15,2013-04-20 09:21:00,
2013-04-20 05:26:00,43.4,42.6,29.68,West,281,1.0,3.0,97,0.00,,,0.27,Wunderground v.1.15,2013-04-20 09:26:00,
2013-04-20 05:31:00,43.4,42.3,29.68,SW,219,1.0,3.0,96,0.00,,,0.27,Wunderground v.1.15,2013-04-20 09:31:00,
2013-04-20 05:36:00,43.3,42.5,29.68,WNW,295,0.0,3.0,97,0.00,,,0.28,Wunderground v.1.15,2013-04-20 09:36:00,
2013-04-20 05:41:00,43.2,42.4,29.69,WNW,292,0.0,0.0,97,0.00,,,0.28,Wunderground v.1.15,2013-04-20 09:41:00,
2013-04-20 05:46:00,43.2,42.4,29.69,NNW,327,1.0,5.0,97,0.06,,,0.29,Wunderground v.1.15,2013-04-20 09:46:00,
2013-04-20 05:51:00,43.1,42.3,29.70,WNW,284,1.0,6.0,97,0.06,,,0.29,Wunderground v.1.15,2013-04-20 09:51:00,
2013-04-20 05:56:00,43.1,42.3,29.71,SW,225,1.0,6.0,97,0.06,,,0.29,Wunderground v.1.15,2013-04-20 09:56:00,
2013-04-20 06:01:00,43.1,42.3,29.72,West,272,1.0,2.0,97,0.04,,,0.29,Wunderground v.1.15,2013-04-20 10:01:00,
2013-04-20 06:06:00,43.0,42.2,29.73,West,276,1.0,6.0,97,0.00,,,0.30,Wunderground v.1.15,2013-04-20 10:06:00,
2013-04-20 06:11:00,43.0,42.2,29.73,WSW,254,1.0,4.0,97,0.00,,,0.30,Wunderground v.1.15,2013-04-20 10:11:00,
2013-04-20 06:16:00,43.0,42.2,29.73,WSW,254,1.0,4.0,97,0.06,,,0.31,Wunderground v.1.15,2013-04-20 10:16:00,
2013-04-20 06:22:00,43.1,42.3,29.73,WSW,253,0.0,1.0,97,0.06,,,0.31,Wunderground v.1.15,2013-04-20 10:22:00,
2013-04-20 06:27:00,43.0,42.2,29.73,WSW,254,0.0,2.0,97,0.05,,,0.31,Wunderground v.1.15,2013-04-20 10:27:00,
2013-04-20 06:32:00,43.1,42.3,29.74,West,261,0.0,2.0,97,0.00,,,0.31,Wunderground v.1.15,2013-04-20 10:32:00,
2013-04-20 06:37:00,43.1,42.3,29.75,WNW,283,0.0,3.0,97,0.00,,,0.31,Wunderground v.1.15,2013-04-20 10:37:00,
2013-04-20 06:42:00,43.1,42.3,29.75,WNW,283,0.0,0.0,97,0.00,,,0.31,Wunderground v.1.15,2013-04-20 10:42:00,
2013-04-20 06:47:00,43.2,42.4,29.75,WNW,283,0.0,0.0,97,0.00,,,0.31,Wunderground v.1.15,2013-04-20 10:47:00,
2013-04-20 06:52:00,43.2,42.4,29.75,West,269,0.0,3.0,97,0.00,,,0.31,Wunderground v.1.15,2013-04-20 10:52:00,
2013-04-20 06:57:00,43.1,42.3,29.76,West,264,0.0,3.0,97,0.00,,,0.31,Wunderground v.1.15,2013-04-20 10:57:00,
2013-04-20 07:02:00,43.1,42.3,29.77,SW,219,0.0,3.0,97,0.00,,,0.31,Wunderground v.1.15,2013-04-20 11:02:00,
2013-04-20 07:07:00,43.1,42.3,29.77,West,279,0.0,3.0,97,0.00,,,0.32,Wunderground v.1.15,2013-04-20 11:07:00,
2013-04-20 07:12:00,43.1,42.3,29.77,West,270,0.0,2.0,97,0.00,,,0.32,Wunderground v.1.15,2013-04-20 11:12:00,
2013-04-20 07:17:00,43.1,42.3,29.77,West,270,0.0,2.0,97,0.00,,,0.32,Wunderground v.1.15,2013-04-20 11:17:00,
2013-04-20 07:22:00,43.1,42.3,29.77,West,260,0.0,0.0,97,0.00,,,0.32,Wunderground v.1.15,2013-04-20 11:22:00,
2013-04-20 07:27:00,43.1,42.3,29.78,West,259,0.0,1.0,97,0.00,,,0.32,Wunderground v.1.15,2013-04-20 11:27:00,
2013-04-20 07:32:00,43.2,42.4,29.78,West,259,0.0,1.0,97,0.00,,,0.32,Wunderground v.1.15,2013-04-20 11:32:00,
2013-04-20 07:37:00,43.2,42.7,29.78,West,259,0.0,1.0,98,0.00,,,0.32,Wunderground v.1.15,2013-04-20 11:37:00,
2013-04-20 07:42:00,43.4,42.9,29.77,West,259,0.0,0.0,98,0.00,,,0.32,Wunderground v.1.15,2013-04-20 11:42:00,
2013-04-20 07:47:00,43.5,43.0,29.77,West,259,0.0,0.0,98,0.00,,,0.32,Wunderground v.1.15,2013-04-20 11:47:00,
2013-04-20 07:52:00,43.7,43.2,29.78,West,259,0.0,0.0,98,0.00,,,0.32,Wunderground v.1.15,2013-04-20 11:52:00,
2013-04-20 07:57:00,43.9,43.4,29.77,West,260,0.0,1.0,98,0.00,,,0.32,Wunderground v.1.15,2013-04-20 11:57:00,
2013-04-20 08:02:00,44.0,43.5,29.77,West,260,0.0,1.0,98,0.00,,,0.32,Wunderground v.1.15,2013-04-20 12:02:00,
2013-04-20 08:07:00,44.1,43.6,29.77,WSW,249,0.0,2.0,98,0.00,,,0.32,Wunderground v.1.15,2013-04-20 12:07:00,
2013-04-20 08:12:00,44.1,43.6,29.77,West,267,1.0,3.0,98,0.00,,,0.32,Wunderground v.1.15,2013-04-20 12:12:00,
2013-04-20 08:17:00,44.0,43.2,29.77,NNW,337,1.0,4.0,97,0.00,,,0.32,Wunderground v.1.15,2013-04-20 12:17:00,
2013-04-20 08:22:00,44.0,43.2,29.77,West,277,1.0,3.0,97,0.00,,,0.32,Wunderground v.1.15,2013-04-20 12:22:00,
2013-04-20 08:27:00,44.2,43.4,29.77,West,280,1.0,3.0,97,0.00,,,0.32,Wunderground v.1.15,2013-04-20 12:27:00,
2013-04-20 08:32:00,44.3,43.2,29.78,West,265,0.0,1.0,96,0.00,,,0.32,Wunderground v.1.15,2013-04-20 12:32:00,
2013-04-20 08:37:00,44.5,43.4,29.77,West,267,0.0,2.0,96,0.00,,,0.32,Wunderground v.1.15,2013-04-20 12:37:00,
2013-04-20 08:42:00,44.6,43.5,29.77,West,263,0.0,2.0,96,0.00,,,0.32,Wunderground v.1.15,2013-04-20 12:42:00,
2013-04-20 08:47:00,44.8,43.7,29.77,West,276,1.0,5.0,96,0.00,,,0.32,Wunderground v.1.15,2013-04-20 12:47:00,
2013-04-20 08:52:00,44.9,43.6,29.78,West,271,1.0,3.0,95,0.00,,,0.32,Wunderground v.1.15,2013-04-20 12:52:00,
2013-04-20 08:57:00,45.0,43.7,29.77,WNW,291,1.0,6.0,95,0.00,,,0.32,Wunderground v.1.15,2013-04-20 12:57:00,
2013-04-20 09:02:00,45.0,43.7,29.77,West,271,1.0,3.0,95,0.00,,,0.32,Wunderground v.1.15,2013-04-20 13:02:00,
2013-04-20 09:07:00,45.6,44.3,29.77,WSW,253,1.0,3.0,95,0.00,,,0.32,Wunderground v.1.15,2013-04-20 13:07:00,
2013-04-20 09:12:00,46.1,44.7,29.77,SW,236,0.0,1.0,95,0.00,,,0.32,Wunderground v.1.15,2013-04-20 13:12:00,
2013-04-20 09:17:00,46.3,44.9,29.77,SW,218,1.0,7.0,95,0.00,,,0.32,Wunderground v.1.15,2013-04-20 13:17:00,
2013-04-20 09:22:00,46.5,44.9,29.77,WSW,242,1.0,2.0,94,0.00,,,0.32,Wunderground v.1.15,2013-04-20 13:22:00,
2013-04-20 09:27:00,46.8,44.9,29.77,WSW,244,2.0,11.0,93,0.00,,,0.32,Wunderground v.1.15,2013-04-20 13:27:00,
2013-04-20 09:32:00,47.2,45.0,29.77,West,259,3.0,5.0,92,0.00,,,0.32,Wunderground v.1.15,2013-04-20 13:32:00,
2013-04-20 09:37:00,47.5,45.0,29.77,South,190,2.0,10.0,91,0.00,,,0.32,Wunderground v.1.15,2013-04-20 13:37:00,
2013-04-20 09:42:00,47.8,44.4,29.78,SSW,211,3.0,11.0,88,0.00,,,0.32,Wunderground v.1.15,2013-04-20 13:42:00,
2013-04-20 09:47:00,48.2,44.2,29.78,WNW,283,3.0,11.0,86,0.00,,,0.32,Wunderground v.1.15,2013-04-20 13:47:00,
2013-04-20 09:52:00,48.6,44.0,29.78,WSW,242,3.0,6.0,84,0.00,,,0.32,Wunderground v.1.15,2013-04-20 13:52:00,
2013-04-20 09:57:00,48.9,44.0,29.78,WNW,287,3.0,13.0,83,0.00,,,0.32,Wunderground v.1.15,2013-04-20 13:57:00,
2013-04-20 10:02:00,49.2,43.3,29.78,West,263,4.0,11.0,80,0.00,,,0.32,Wunderground v.1.15,2013-04-20 14:02:00,
2013-04-20 10:07:00,49.3,43.7,29.79,WSW,246,4.0,12.0,81,0.00,,,0.32,Wunderground v.1.15,2013-04-20 14:07:00,
2013-04-20 10:12:00,49.2,43.3,29.80,SW,229,4.0,12.0,80,0.00,,,0.32,Wunderground v.1.15,2013-04-20 14:12:00,
2013-04-20 10:17:00,49.4,43.8,29.80,WSW,238,4.0,16.0,81,0.00,,,0.32,Wunderground v.1.15,2013-04-20 14:17:00,
2013-04-20 10:22:00,49.7,44.1,29.80,SW,218,3.0,9.0,81,0.00,,,0.32,Wunderground v.1.15,2013-04-20 14:22:00,
2013-04-20 10:27:00,50.2,43.6,29.81,WSW,244,3.0,13.0,78,0.00,,,0.32,Wunderground v.1.15,2013-04-20 14:27:00,
2013-04-20 10:32:00,50.4,42.8,29.82,WSW,256,4.0,7.0,75,0.00,,,0.32,Wunderground v.1.15,2013-04-20 14:32:00,
2013-04-20 10:37:00,50.4,41.3,29.82,SW,225,5.0,16.0,71,0.00,,,0.32,Wunderground v.1.15,2013-04-20 14:37:00,
2013-04-20 10:42:00,50.5,40.7,29.82,West,265,6.0,10.0,69,0.00,,,0.32,Wunderground v.1.15,2013-04-20 14:42:00,
2013-04-20 10:47:00,50.7,40.9,29.82,SSW,205,6.0,15.0,69,0.00,,,0.32,Wunderground v.1.15,2013-04-20 14:47:00,
2013-04-20 10:52:00,51.0,41.6,29.83,SW,229,3.0,5.0,70,0.00,,,0.32,Wunderground v.1.15,2013-04-20 14:52:00,
2013-04-20 10:57:00,51.2,39.4,29.82,WSW,251,4.0,19.0,64,0.00,,,0.32,Wunderground v.1.15,2013-04-20 14:57:00,
2013-04-20 11:02:00,51.3,39.9,29.83,SW,214,5.0,14.0,65,0.00,,,0.32,Wunderground v.1.15,2013-04-20 15:02:00,
2013-04-20 11:07:00,51.5,37.6,29.82,SW,222,4.0,14.0,59,0.00,,,0.32,Wunderground v.1.15,2013-04-20 15:07:00,
2013-04-20 11:12:00,51.6,37.3,29.83,SSW,209,5.0,12.0,58,0.00,,,0.32,Wunderground v.1.15,2013-04-20 15:12:00,
2013-04-20 11:17:00,51.7,38.7,29.83,SW,219,4.0,12.0,61,0.00,,,0.32,Wunderground v.1.15,2013-04-20 15:17:00,
2013-04-20 11:22:00,51.7,37.8,29.83,SW,223,4.0,10.0,59,0.00,,,0.32,Wunderground v.1.15,2013-04-20 15:22:00,
2013-04-20 11:27:00,51.7,37.8,29.83,West,265,4.0,12.0,59,0.00,,,0.32,Wunderground v.1.15,2013-04-20 15:27:00,
2013-04-20 11:35:00,51.8,37.9,29.84,SW,219,4.0,4.0,59,0.00,,,0.32,Wunderground v.1.15,2013-04-20 15:35:00,
2013-04-20 11:45:00,51.8,37.5,29.84,South,183,4.0,4.0,58,0.00,,,0.32,Wunderground v.1.15,2013-04-20 15:45:00,
2013-04-20 11:50:00,52.0,37.7,29.84,WSW,239,4.0,4.0,58,0.00,,,0.32,Wunderground v.1.15,2013-04-20 15:50:00,
2013-04-20 12:00:00,52.2,37.4,29.84,SW,214,4.0,4.0,57,0.00,,,0.32,Wunderground v.1.15,2013-04-20 16:00:00,
2013-04-20 12:10:00,51.9,35.8,29.85,SW,232,5.0,15.0,54,0.00,,,0.32,Wunderground v.1.15,2013-04-20 16:10:00,
2013-04-20 12:15:00,51.7,36.0,29.85,West,268,5.0,15.0,55,0.00,,,0.32,Wunderground v.1.15,2013-04-20 16:15:00,
2013-04-20 12:25:00,52.2,36.5,29.85,West,278,2.0,7.0,55,0.00,,,0.32,Wunderground v.1.15,2013-04-20 16:25:00,
2013-04-20 12:30:00,52.0,36.3,29.85,West,275,3.0,8.0,55,0.00,,,0.32,Wunderground v.1.15,2013-04-20 16:30:00,
2013-04-20 12:35:00,52.1,36.4,29.85,WNW,290,4.0,11.0,55,0.00,,,0.32,Wunderground v.1.15,2013-04-20 16:35:00,
2013-04-20 12:40:00,52.0,35.9,29.85,SW,226,4.0,6.0,54,0.00,,,0.32,Wunderground v.1.15,2013-04-20 16:40:00,
2013-04-20 12:45:00,52.1,35.5,29.85,SE,135,4.0,6.0,53,0.00,,,0.32,Wunderground v.1.15,2013-04-20 16:45:00,
2013-04-20 12:55:00,52.3,36.1,29.85,WSW,253,3.0,6.0,54,0.00,,,0.32,Wunderground v.1.15,2013-04-20 16:55:00,
2013-04-20 13:00:00,51.8,35.2,29.85,West,280,5.0,6.0,53,0.00,,,0.32,Wunderground v.1.15,2013-04-20 17:00:00,
2013-04-20 13:10:00,51.6,35.5,29.84,SSW,203,5.0,5.0,54,0.00,,,0.32,Wunderground v.1.15,2013-04-20 17:10:00,
2013-04-20 13:15:00,51.7,36.0,29.85,SW,229,5.0,5.0,55,0.00,,,0.32,Wunderground v.1.15,2013-04-20 17:15:00,
2013-04-20 13:20:00,51.8,35.7,29.85,West,261,5.0,6.0,54,0.00,,,0.32,Wunderground v.1.15,2013-04-20 17:20:00,
2013-04-20 13:25:00,52.0,36.8,29.84,WSW,246,4.0,6.0,56,0.00,,,0.32,Wunderground v.1.15,2013-04-20 17:25:00,
2013-04-20 13:30:00,52.3,37.1,29.85,West,261,3.0,3.0,56,0.00,,,0.32,Wunderground v.1.15,2013-04-20 17:30:00,
2013-04-20 13:40:00,53.1,36.9,29.85,West,271,2.0,3.0,54,0.00,,,0.32,Wunderground v.1.15,2013-04-20 17:40:00,
2013-04-20 13:45:00,53.2,36.0,29.85,WSW,246,4.0,4.0,52,0.00,,,0.32,Wunderground v.1.15,2013-04-20 17:45:00,
2013-04-20 13:50:00,53.5,37.3,29.84,NW,319,5.0,5.0,54,0.00,,,0.32,Wunderground v.1.15,2013-04-20 17:50:00,
2013-04-20 13:55:00,54.1,37.8,29.84,WNW,286,4.0,5.0,54,0.00,,,0.32,Wunderground v.1.15,2013-04-20 17:55:00,
2013-04-20 14:00:00,54.6,37.8,29.84,West,260,4.0,10.0,53,0.00,,,0.32,Wunderground v.1.15,2013-04-20 18:00:00,
2013-04-20 14:10:00,55.2,37.4,29.84,West,269,4.0,4.0,51,0.00,,,0.32,Wunderground v.1.15,2013-04-20 18:10:00,
2013-04-20 14:15:00,55.3,38.4,29.85,SW,214,3.0,4.0,53,0.00,,,0.32,Wunderground v.1.15,2013-04-20 18:15:00,
2013-04-20 14:20:00,55.7,38.8,29.85,WSW,253,3.0,5.0,53,0.00,,,0.32,Wunderground v.1.15,2013-04-20 18:20:00,
2013-04-20 14:30:00,55.5,37.7,29.85,SW,233,5.0,5.0,51,0.00,,,0.32,Wunderground v.1.15,2013-04-20 18:30:00,
2013-04-20 14:35:00,56.0,38.1,29.85,South,180,4.0,5.0,51,0.00,,,0.32,Wunderground v.1.15,2013-04-20 18:35:00,
2013-04-20 14:40:00,56.0,37.6,29.85,SW,221,3.0,3.0,50,0.00,,,0.32,Wunderground v.1.15,2013-04-20 18:40:00,
2013-04-20 14:45:00,56.0,37.1,29.85,West,260,4.0,5.0,49,0.00,,,0.32,Wunderground v.1.15,2013-04-20 18:45:00,
2013-04-20 14:55:00,56.8,38.9,29.85,WNW,288,6.0,11.0,51,0.00,,,0.32,Wunderground v.1.15,2013-04-20 18:55:00,
2013-04-20 15:00:00,56.9,37.4,29.85,West,264,5.0,5.0,48,0.00,,,0.32,Wunderground v.1.15,2013-04-20 19:00:00,
2013-04-20 15:10:00,56.2,37.8,29.85,SSW,195,5.0,5.0,50,0.00,,,0.32,Wunderground v.1.15,2013-04-20 19:10:00,
2013-04-20 15:20:00,56.7,36.7,29.85,NW,307,4.0,5.0,47,0.00,,,0.32,Wunderground v.1.15,2013-04-20 19:20:00,
2013-04-20 15:25:00,56.7,36.1,29.86,WSW,252,6.0,6.0,46,0.00,,,0.32,Wunderground v.1.15,2013-04-20 19:25:00,
2013-04-20 15:30:00,56.7,36.1,29.86,SW,236,6.0,6.0,46,0.00,,,0.32,Wunderground v.1.15,2013-04-20 19:30:00,
2013-04-20 15:40:00,57.0,37.5,29.86,SW,233,4.0,4.0,48,0.00,,,0.32,Wunderground v.1.15,2013-04-20 19:40:00,
2013-04-20 15:45:00,57.3,36.1,29.86,West,275,4.0,10.0,45,0.00,,,0.32,Wunderground v.1.15,2013-04-20 19:45:00,
2013-04-20 15:50:00,57.0,36.4,29.86,SSW,210,4.0,4.0,46,0.00,,,0.32,Wunderground v.1.15,2013-04-20 19:50:00,
2013-04-20 15:55:00,57.3,36.1,29.86,WNW,287,4.0,6.0,45,0.00,,,0.32,Wunderground v.1.15,2013-04-20 19:55:00,
2013-04-20 16:00:00,56.9,36.3,29.87,WNW,284,5.0,6.0,46,0.00,,,0.32,Wunderground v.1.15,2013-04-20 20:00:00,
2013-04-20 16:10:00,57.7,37.0,29.87,West,269,4.0,4.0,46,0.00,,,0.32,Wunderground v.1.15,2013-04-20 20:10:00,
2013-04-20 16:15:00,58.2,36.4,29.88,SW,236,4.0,6.0,44,0.00,,,0.32,Wunderground v.1.15,2013-04-20 20:15:00,
2013-04-20 16:24:00,58.5,36.6,29.88,WSW,240,3.0,3.0,44,0.00,,,0.32,Wunderground v.1.15,2013-04-20 20:24:00,
2013-04-20 16:30:00,58.2,36.9,29.88,WNW,303,3.0,5.0,45,0.00,,,0.32,Wunderground v.1.15,2013-04-20 20:30:00,
2013-04-20 16:35:00,58.3,36.5,29.89,WNW,299,4.0,5.0,44,0.00,,,0.32,Wunderground v.1.15,2013-04-20 20:35:00,
2013-04-20 16:40:00,58.4,36.6,29.89,SW,220,4.0,4.0,44,0.00,,,0.32,Wunderground v.1.15,2013-04-20 20:40:00,
2013-04-20 16:45:00,58.6,37.3,29.89,SSW,207,3.0,4.0,45,0.00,,,0.32,Wunderground v.1.15,2013-04-20 20:45:00,
2013-04-20 16:55:00,57.9,36.1,29.90,WSW,249,4.0,8.0,44,0.00,,,0.32,Wunderground v.1.15,2013-04-20 20:55:00,
2013-04-20 17:00:00,58.0,36.8,29.90,SSW,194,3.0,3.0,45,0.00,,,0.32,Wunderground v.1.15,2013-04-20 21:00:00,
2013-04-20 17:10:00,57.6,35.2,29.91,NW,311,4.0,9.0,43,0.00,,,0.32,Wunderground v.1.15,2013-04-20 21:10:00,
2013-04-20 17:20:00,56.7,35.0,29.91,SW,224,3.0,3.0,44,0.00,,,0.32,Wunderground v.1.15,2013-04-20 21:20:00,
2013-04-20 17:25:00,56.3,35.2,29.91,WSW,242,4.0,5.0,45,0.00,,,0.32,Wunderground v.1.15,2013-04-20 21:25:00,
2013-04-20 17:30:00,55.8,34.8,29.92,West,262,4.0,4.0,45,0.00,,,0.32,Wunderground v.1.15,2013-04-20 21:30:00,
2013-04-20 17:35:00,55.5,34.5,29.92,SW,234,4.0,4.0,45,0.00,,,0.32,Wunderground v.1.15,2013-04-20 21:35:00,
2013-04-20 17:45:00,55.8,34.8,29.92,WSW,242,3.0,7.0,45,0.00,,,0.32,Wunderground v.1.15,2013-04-20 21:45:00,
2013-04-20 17:50:00,56.3,34.6,29.92,WSW,242,3.0,3.0,44,0.00,,,0.32,Wunderground v.1.15,2013-04-20 21:50:00,
2013-04-20 17:55:00,56.8,35.7,29.93,WSW,242,2.0,6.0,45,0.00,,,0.32,Wunderground v.1.15,2013-04-20 21:55:00,
2013-04-20 18:10:00,57.4,33.9,29.94,SSW,211,4.0,5.0,41,0.00,,,0.32,Wunderground v.1.15,2013-04-20 22:10:00,
2013-04-20 18:15:00,57.1,34.8,29.94,WSW,240,6.0,6.0,43,0.00,,,0.32,Wunderground v.1.15,2013-04-20 22:15:00,
2013-04-20 18:20:00,56.9,34.0,29.94,West,275,4.0,7.0,42,0.00,,,0.32,Wunderground v.1.15,2013-04-20 22:20:00,
2013-04-20 18:30:00,56.4,33.6,29.95,SW,231,4.0,4.0,42,0.00,,,0.32,Wunderground v.1.15,2013-04-20 22:30:00,
2013-04-20 18:35:00,56.0,34.4,29.95,WSW,245,3.0,4.0,44,0.00,,,0.32,Wunderground v.1.15,2013-04-20 22:35:00,
2013-04-20 18:40:00,55.8,34.2,29.95,SW,234,3.0,3.0,44,0.00,,,0.32,Wunderground v.1.15,2013-04-20 22:40:00,
2013-04-20 18:45:00,55.7,32.9,29.96,SSW,208,3.0,4.0,42,0.00,,,0.32,Wunderground v.1.15,2013-04-20 22:45:00,
2013-04-20 18:50:00,55.5,33.9,29.96,WSW,246,3.0,3.0,44,0.00,,,0.32,Wunderground v.1.15,2013-04-20 22:50:00,
2013-04-20 19:00:00,54.8,32.7,29.97,WSW,246,3.0,3.0,43,0.00,,,0.32,Wunderground v.1.15,2013-04-20 23:00:00,
2013-04-20 19:10:00,54.3,32.8,29.97,SW,222,4.0,4.0,44,0.00,,,0.32,Wunderground v.1.15,2013-04-20 23:10:00,
2013-04-20 19:20:00,53.9,33.0,29.98,West,274,3.0,3.0,45,0.00,,,0.32,Wunderground v.1.15,2013-04-20 23:20:00,
2013-04-20 19:25:00,53.7,32.3,29.99,West,266,3.0,3.0,44,0.00,,,0.32,Wunderground v.1.15,2013-04-20 23:25:00,
2013-04-20 19:30:00,53.6,32.8,29.99,SW,233,2.0,2.0,45,0.00,,,0.32,Wunderground v.1.15,2013-04-20 23:30:00,
2013-04-20 19:35:00,53.3,32.5,30.00,WSW,254,2.0,2.0,45,0.00,,,0.32,Wunderground v.1.15,2013-04-20 23:35:00,
2013-04-20 19:45:00,52.9,32.1,30.00,SW,236,2.0,3.0,45,0.00,,,0.32,Wunderground v.1.15,2013-04-20 23:45:00,
2013-04-20 19:50:00,52.6,32.4,30.01,WSW,245,2.0,2.0,46,0.00,,,0.32,Wunderground v.1.15,2013-04-20 23:50:00,
2013-04-20 19:55:00,52.4,32.2,30.01,West,268,1.0,2.0,46,0.00,,,0.32,Wunderground v.1.15,2013-04-20 23:55:00,
2013-04-20 20:00:00,52.2,32.0,30.02,WSW,250,1.0,1.0,46,0.00,,,0.32,Wunderground v.1.15,2013-04-21 00:00:00,
2013-04-20 20:10:00,51.9,31.2,30.03,West,279,2.0,3.0,45,0.00,,,0.32,Wunderground v.1.15,2013-04-21 00:10:00,
2013-04-20 20:15:00,52.0,31.8,30.03,WSW,247,3.0,3.0,46,0.00,,,0.32,Wunderground v.1.15,2013-04-21 00:15:00,
2013-04-20 20:20:00,51.8,31.7,30.04,West,259,2.0,2.0,46,0.00,,,0.32,Wunderground v.1.15,2013-04-21 00:20:00,
2013-04-20 20:25:00,51.5,31.4,30.04,SW,226,1.0,2.0,46,0.00,,,0.32,Wunderground v.1.15,2013-04-21 00:25:00,
2013-04-20 20:35:00,51.1,31.6,30.05,WSW,240,1.0,1.0,47,0.00,,,0.32,Wunderground v.1.15,2013-04-21 00:35:00,
2013-04-20 20:40:00,50.9,30.8,30.05,West,269,1.0,2.0,46,0.00,,,0.32,Wunderground v.1.15,2013-04-21 00:40:00,
2013-04-20 20:45:00,50.8,30.7,30.06,WSW,252,1.0,2.0,46,0.00,,,0.32,Wunderground v.1.15,2013-04-21 00:45:00,
2013-04-20 20:50:00,50.7,30.7,30.07,SSW,209,1.0,1.0,46,0.00,,,0.32,Wunderground v.1.15,2013-04-21 00:50:00,
2013-04-20 21:00:00,50.5,31.0,30.07,WSW,246,2.0,2.0,47,0.00,,,0.32,Wunderground v.1.15,2013-04-21 01:00:00,
2013-04-20 21:10:00,50.1,32.2,30.08,West,280,1.0,1.0,50,0.00,,,0.32,Wunderground v.1.15,2013-04-21 01:10:00,
2013-04-20 21:15:00,49.7,32.8,30.09,NNW,336,1.0,4.0,52,0.00,,,0.32,Wunderground v.1.15,2013-04-21 01:15:00,
2013-04-20 21:20:00,49.4,33.0,30.09,North,349,1.0,2.0,53,0.00,,,0.32,Wunderground v.1.15,2013-04-21 01:20:00,
2013-04-20 21:30:00,48.9,33.0,30.10,NNW,334,1.0,3.0,54,0.00,,,0.32,Wunderground v.1.15,2013-04-21 01:30:00,
2013-04-20 21:35:00,48.6,33.1,30.11,WNW,295,1.0,3.0,55,0.00,,,0.32,Wunderground v.1.15,2013-04-21 01:35:00,
2013-04-20 21:40:00,48.3,32.9,30.11,WNW,296,1.0,2.0,55,0.00,,,0.32,Wunderground v.1.15,2013-04-21 01:40:00,
2013-04-20 21:49:00,47.9,32.9,30.12,NW,314,1.0,1.0,56,0.00,,,0.32,Wunderground v.1.15,2013-04-21 01:49:00,
2013-04-20 21:55:00,47.8,32.9,30.12,NW,310,1.0,1.0,56,0.00,,,0.32,Wunderground v.1.15,2013-04-21 01:55:00,
2013-04-20 22:00:00,47.5,33.0,30.13,North,9,1.0,1.0,57,0.00,,,0.32,Wunderground v.1.15,2013-04-21 02:00:00,
2013-04-20 22:09:00,46.7,33.5,30.14,West,267,1.0,1.0,60,0.00,,,0.32,Wunderground v.1.15,2013-04-21 02:09:00,
2013-04-20 22:15:00,46.3,33.6,30.14,NNW,336,2.0,2.0,61,0.00,,,0.32,Wunderground v.1.15,2013-04-21 02:15:00,
2013-04-20 22:20:00,45.8,33.1,30.15,NW,325,2.0,6.0,61,0.00,,,0.32,Wunderground v.1.15,2013-04-21 02:20:00,
2013-04-20 22:25:00,45.4,33.1,30.15,NNW,328,2.0,6.0,62,0.00,,,0.32,Wunderground v.1.15,2013-04-21 02:25:00,
2013-04-20 22:30:00,45.1,33.2,30.15,NW,325,1.0,1.0,63,0.00,,,0.32,Wunderground v.1.15,2013-04-21 02:30:00,
2013-04-20 22:35:00,44.9,33.1,30.15,NW,309,2.0,2.0,63,0.00,,,0.32,Wunderground v.1.15,2013-04-21 02:35:00,
2013-04-20 22:45:00,44.4,33.0,30.16,NW,314,2.0,2.0,64,0.00,,,0.32,Wunderground v.1.15,2013-04-21 02:45:00,
2013-04-20 22:50:00,44.1,32.3,30.17,North,5,1.0,2.0,63,0.00,,,0.32,Wunderground v.1.15,2013-04-21 02:50:00,
2013-04-20 22:55:00,43.7,32.3,30.17,North,360,2.0,4.0,64,0.00,,,0.32,Wunderground v.1.15,2013-04-21 02:55:00,
2013-04-20 23:00:00,43.3,31.9,30.17,NW,313,2.0,2.0,64,0.00,,,0.32,Wunderground v.1.15,2013-04-21 03:00:00,
2013-04-20 23:10:00,42.5,31.2,30.18,WSW,257,2.0,2.0,64,0.00,,,0.32,Wunderground v.1.15,2013-04-21 03:10:00,
2013-04-20 23:15:00,42.3,31.4,30.19,NW,304,1.0,3.0,65,0.00,,,0.32,Wunderground v.1.15,2013-04-21 03:15:00,
2013-04-20 23:20:00,42.0,31.1,30.19,WNW,290,1.0,2.0,65,0.00,,,0.32,Wunderground v.1.15,2013-04-21 03:20:00,
2013-04-20 23:30:00,41.4,30.5,30.19,North,9,2.0,4.0,65,0.00,,,0.32,Wunderground v.1.15,2013-04-21 03:30:00,
2013-04-20 23:35:00,41.2,30.3,30.20,NNW,331,2.0,4.0,65,0.00,,,0.32,Wunderground v.1.15,2013-04-21 03:35:00,
2013-04-20 23:40:00,41.1,30.2,30.20,West,281,2.0,2.0,65,0.00,,,0.32,Wunderground v.1.15,2013-04-21 03:40:00,
2013-04-20 23:45:00,40.9,30.0,30.20,West,273,2.0,2.0,65,0.00,,,0.32,Wunderground v.1.15,2013-04-21 03:45:00,
2013-04-20 23:55:00,40.5,29.7,30.21,WSW,245,1.0,2.0,65,0.00,,,0.32,Wunderground v.1.15,2013-04-21 03:55:00,